Gp Amelia — WD16635 — position and weather

sailwx.info

Track history (hours):
 
Tides and Currents Weather Stations Pressure Air Temp Water Temp Dewpoint Dewpoint Depression Visibility Wind Speed Wind Dir Waves Ship Positions

Gp Amelia

Last reported at 2017-Sep-24 08:30 UTC. Time now 2017-Sep-24 08:42 UTC.
Position N 29°52' W 092°08'.

Length 45 m; draft 4 m.

Type: Fishing. MMSI: 367720660.

Date/timePositionNaut miles runAvg speedWind from/ knotsBaromVisibWave heightAir tempDewpointWater temp
2017-Sep-24 08:30N 29°52' W 092°08'0 0.0
2017-Sep-24 08:00N 29°52' W 092°08'0 0.0
2017-Sep-24 07:27N 29°52' W 092°08'0 0.0
2017-Sep-24 07:00N 29°52' W 092°08'0 0.0
2017-Sep-24 06:27N 29°52' W 092°08'0 0.0
2017-Sep-24 05:42N 29°52' W 092°08'0 0.0
2017-Sep-24 05:12N 29°52' W 092°08'0 0.0
2017-Sep-24 04:33N 29°52' W 092°08'0 0.0
2017-Sep-24 04:15N 29°52' W 092°08'0 0.0
2017-Sep-24 04:00N 29°52' W 092°08'0 0.0
2017-Sep-24 03:27N 29°52' W 092°08'0 0.0
2017-Sep-24 02:54N 29°52' W 092°08'0 0.0
2017-Sep-24 02:30N 29°52' W 092°08'0 0.0
2017-Sep-24 02:00N 29°52' W 092°08'0 0.0
2017-Sep-24 01:30N 29°52' W 092°08'0 0.0
2017-Sep-24 00:48N 29°52' W 092°08'0 0.0
2017-Sep-24 00:27N 29°52' W 092°08'0 0.0
2017-Sep-23 20:39N 29°52' W 092°08'0 0.0
2017-Sep-23 20:09N 29°52' W 092°08'13 0.3
2017-Sep-22 01:59N 29°41' W 092°15'1 0.0
2017-Sep-20 19:09N 29°42' W 092°15'1 9.4
2017-Sep-20 19:00N 29°43' W 092°15'5 9.0
2017-Sep-20 18:30N 29°46' W 092°11'3 6.3
2017-Sep-20 18:00N 29°48' W 092°08'4 0.3
2017-Sep-20 04:59N 29°52' W 092°08'0 0.0
2017-Sep-20 04:29N 29°52' W 092°08'0 0.0
2017-Sep-20 03:59N 29°52' W 092°08'0 0.0
2017-Sep-20 00:56N 29°52' W 092°08'0 0.0
2017-Sep-20 00:29N 29°52' W 092°08'0 0.0
2017-Sep-19 23:59N 29°52' W 092°08'0 0.0
2017-Sep-18 11:21N 29°52' W 092°08'0 0.0
2017-Sep-18 03:24N 29°52' W 092°08'0 0.0
2017-Sep-17 00:44N 29°52' W 092°08'0 0.0
2017-Sep-17 00:17N 29°52' W 092°08'0 0.0
2017-Sep-16 23:08N 29°52' W 092°08'0 0.0
2017-Sep-16 21:56N 29°52' W 092°08'0 0.0
2017-Sep-16 11:56N 29°52' W 092°08'0 0.0
2017-Sep-16 10:05N 29°52' W 092°08'0 0.0
2017-Sep-16 09:59N 29°52' W 092°08'0 0.0
2017-Sep-16 07:44N 29°52' W 092°08'0 0.0
2017-Sep-15 18:31N 29°52' W 092°08'0 0.0
2017-Sep-15 18:28N 29°52' W 092°08'0 0.0
2017-Sep-15 17:58N 29°52' W 092°08'0 0.0
2017-Sep-15 02:49N 29°52' W 092°08'0 0.0
2017-Sep-15 02:25N 29°52' W 092°08'0 0.0
2017-Sep-15 01:34N 29°52' W 092°08'0 0.0
2017-Sep-15 01:22N 29°52' W 092°08'  
Track history (hours):
 
Tides and Currents Weather Stations Pressure Air Temp Water Temp Dewpoint Dewpoint Depression Visibility Wind Speed Wind Dir Waves Ship Positions

Gp Amelia

Last reported at 2017-Sep-24 08:30 UTC. Time now 2017-Sep-24 08:42 UTC.
Position N 29°52' W 092°08'.

Length 45 m; draft 4 m.

Type: Fishing. MMSI: 367720660.

Date/timePositionNaut miles runAvg speedWind from/ knotsBaromVisibWave heightAir tempDewpointWater temp
2017-Sep-24 08:30N 29°52' W 092°08'0 0.0
2017-Sep-24 08:00N 29°52' W 092°08'0 0.0
2017-Sep-24 07:27N 29°52' W 092°08'0 0.0
2017-Sep-24 07:00N 29°52' W 092°08'0 0.0
2017-Sep-24 06:27N 29°52' W 092°08'0 0.0
2017-Sep-24 05:42N 29°52' W 092°08'0 0.0
2017-Sep-24 05:12N 29°52' W 092°08'0 0.0
2017-Sep-24 04:33N 29°52' W 092°08'0 0.0
2017-Sep-24 04:15N 29°52' W 092°08'0 0.0
2017-Sep-24 04:00N 29°52' W 092°08'0 0.0
2017-Sep-24 03:27N 29°52' W 092°08'0 0.0
2017-Sep-24 02:54N 29°52' W 092°08'0 0.0
2017-Sep-24 02:30N 29°52' W 092°08'0 0.0
2017-Sep-24 02:00N 29°52' W 092°08'0 0.0
2017-Sep-24 01:30N 29°52' W 092°08'0 0.0
2017-Sep-24 00:48N 29°52' W 092°08'0 0.0
2017-Sep-24 00:27N 29°52' W 092°08'0 0.0
2017-Sep-23 20:39N 29°52' W 092°08'0 0.0
2017-Sep-23 20:09N 29°52' W 092°08'13 0.3
2017-Sep-22 01:59N 29°41' W 092°15'1 0.0
2017-Sep-20 19:09N 29°42' W 092°15'1 9.4
2017-Sep-20 19:00N 29°43' W 092°15'5 9.0
2017-Sep-20 18:30N 29°46' W 092°11'3 6.3
2017-Sep-20 18:00N 29°48' W 092°08'4 0.3
2017-Sep-20 04:59N 29°52' W 092°08'0 0.0
2017-Sep-20 04:29N 29°52' W 092°08'0 0.0
2017-Sep-20 03:59N 29°52' W 092°08'0 0.0
2017-Sep-20 00:56N 29°52' W 092°08'0 0.0
2017-Sep-20 00:29N 29°52' W 092°08'0 0.0
2017-Sep-19 23:59N 29°52' W 092°08'0 0.0
2017-Sep-18 11:21N 29°52' W 092°08'0 0.0
2017-Sep-18 03:24N 29°52' W 092°08'0 0.0
2017-Sep-17 00:44N 29°52' W 092°08'0 0.0
2017-Sep-17 00:17N 29°52' W 092°08'0 0.0
2017-Sep-16 23:08N 29°52' W 092°08'0 0.0
2017-Sep-16 21:56N 29°52' W 092°08'0 0.0
2017-Sep-16 11:56N 29°52' W 092°08'0 0.0
2017-Sep-16 10:05N 29°52' W 092°08'0 0.0
2017-Sep-16 09:59N 29°52' W 092°08'0 0.0
2017-Sep-16 07:44N 29°52' W 092°08'0 0.0
2017-Sep-15 18:31N 29°52' W 092°08'0 0.0
2017-Sep-15 18:28N 29°52' W 092°08'0 0.0
2017-Sep-15 17:58N 29°52' W 092°08'0 0.0
2017-Sep-15 02:49N 29°52' W 092°08'0 0.0
2017-Sep-15 02:25N 29°52' W 092°08'0 0.0
2017-Sep-15 01:34N 29°52' W 092°08'0 0.0
2017-Sep-15 01:22N 29°52' W 092°08'  

Dump ship's entire track history